ADDS METAR Data INFO
IDs: Format: Raw Decoded Include TAF

Data at: 0135 UTC 20 Feb 2018

KMQI 200115Z AUTO 19007KT 10SM SCT023 BKN028 BKN032 15/14 A3043 RMK AO2 T01540144
KMQI 200055Z AUTO 20008KT 10SM BKN026 OVC033 16/15 A3043 RMK AO2 T01550145
KMQI 200035Z AUTO 19008KT 10SM OVC024 16/15 A3043 RMK AO2 T01560145
KMQI 200015Z AUTO 19008KT 10SM OVC022 16/15 A3043 RMK AO2 T01550145
KMQI 192355Z AUTO 19007KT 10SM OVC024 16/15 A3042 RMK AO2 T01550145 10162 20138
KMQI 192335Z AUTO 18006KT 10SM BKN024 OVC036 15/14 A3042 RMK AO2 T01510141
KMQI 192315Z AUTO 18006KT 10SM BKN024 OVC036 15/14 A3042 RMK AO2 T01470136
KMQI 192255Z AUTO 19005KT 10SM BKN024 BKN028 OVC034 15/14 A3042 RMK AO2 T01480136
KMQI 192235Z AUTO 19007KT 10SM BKN026 BKN034 OVC040 15/14 A3042 RMK AO2 T01510138
KMQI 192215Z AUTO 19008KT 10SM OVC024 15/14 A3041 RMK AO2 T01520138
KMQI 192155Z AUTO 18006KT 10SM OVC022 15/14 A3041 RMK AO2 T01500135
KMQI 192135Z AUTO 19006KT 10SM OVC020 15/14 A3041 RMK AO2 T01500135
KMQI 192115Z AUTO 19004KT 10SM OVC020 14/13 A3041 RMK AO2 T01380127
KMQI 192055Z AUTO 18006KT 10SM OVC022 15/14 A3041 RMK AO2 T01510135
KMQI 192035Z AUTO 19008KT 10SM BKN022 OVC026 15/14 A3041 RMK AO2 T01520137
KMQI 192015Z AUTO 19009KT 10SM SCT020 OVC027 15/14 A3041 RMK AO2 T01510135
KMQI 191955Z AUTO 19008KT 10SM OVC027 15/13 A3041 RMK AO2 T01500132
KMQI 191935Z AUTO 19010G15KT 10SM BKN026 OVC032 15/13 A3041 RMK AO2 T01540131
KMQI 191915Z AUTO 18009G15KT 10SM OVC024 16/13 A3041 RMK AO2 T01600131
KMQI 191855Z AUTO 18010KT 10SM OVC024 16/13 A3041 RMK AO2 T01610132
KMQI 191835Z AUTO 17008KT 10SM OVC024 16/13 A3042 RMK AO2 T01590131
KMQI 191815Z AUTO 16007KT 10SM OVC024 16/13 A3043 RMK AO2 T01550131
KMQI 191755Z AUTO 16007KT 10SM OVC024 15/13 A3044 RMK AO2 60001 T01510126 10151 20095
KMQI 191735Z AUTO 15007KT 10SM BKN024 OVC028 15/13 A3045 RMK AO2 T01460125
KMQI 191715Z AUTO 16007G14KT 10SM OVC024 14/12 A3046 RMK AO2 T01420122
KMQI 191655Z AUTO 15007KT 7SM OVC024 14/12 A3047 RMK AO2 P0001 T01350120
KMQI 191635Z AUTO 13006KT 10SM OVC024 13/11 A3048 RMK AO2 P0001 T01270114
KMQI 191615Z AUTO 13005KT 7SM -DZ OVC026 12/11 A3048 RMK AO2 P0001 T01230111
KMQI 191555Z AUTO 12006KT 5SM RA OVC026 14/11 A3049 RMK AO2 T01350112
KMQI 191535Z AUTO 13006KT 10SM OVC028 14/11 A3049 RMK AO2 T01380106
KMQI 191515Z AUTO 14006KT 10SM OVC030 14/10 A3048 RMK AO2 T01400102
KMQI 191455Z AUTO 13006KT 10SM OVC034 14/10 A3048 RMK AO2 T01350100
KMQI 191435Z AUTO 13005KT 10SM OVC038 13/09 A3049 RMK AO2 T01250094
KMQI 191415Z AUTO 13007KT 10SM BKN031 OVC042 12/09 A3048 RMK AO2 T01200091
KMQI 191355Z AUTO 12006KT 10SM BKN033 OVC042 11/09 A3049 RMK AO2 T01130090
KMQI 191335Z AUTO 11006KT 10SM OVC039 11/09 A3048 RMK AO2 T01080088
KMQI 191315Z AUTO 10006KT 10SM OVC039 11/09 A3048 RMK AO2 T01060088
KMQI 191255Z AUTO 10007KT 10SM OVC041 10/08 A3048 RMK AO2 T00990084
KMQI 191235Z AUTO 09007KT 10SM OVC039 10/08 A3049 RMK AO2 T00970082
KMQI 191215Z AUTO 10008KT 10SM OVC039 10/08 A3048 RMK AO2 T00950080
KMQI 191155Z AUTO 10008KT 10SM OVC039 10/08 A3047 RMK AO2 T00950077 10095 20065
KMQI 191135Z AUTO 10009KT 10SM OVC041 09/08 A3047 RMK AO2 T00940075
KMQI 191115Z AUTO 11008KT 10SM OVC041 09/07 A3046 RMK AO2 T00920072
KMQI 191055Z AUTO 10009KT 10SM OVC041 09/07 A3047 RMK AO2 T00900070
KMQI 191035Z AUTO 09009KT 10SM OVC039 09/07 A3047 RMK AO2 T00900068
KMQI 191015Z AUTO 09010KT 10SM OVC039 09/07 A3047 RMK AO2 T00870065
KMQI 190955Z AUTO 10008KT 10SM OVC039 09/06 A3047 RMK AO2 T00860063
KMQI 190935Z AUTO 08010KT 10SM OVC041 09/06 A3047 RMK AO2 T00850060
KMQI 190915Z AUTO 08009G15KT 10SM OVC041 08/06 A3047 RMK AO2 T00830057
KMQI 190855Z AUTO 08009KT 10SM OVC043 08/05 A3048 RMK AO2 T00810054
KMQI 190835Z AUTO 07009KT 10SM OVC045 08/05 A3048 RMK AO2 T00800051
KMQI 190815Z AUTO 07011KT 10SM OVC048 08/05 A3047 RMK AO2 T00780047
KMQI 190755Z AUTO 08009KT 10SM BKN050 08/05 A3048 RMK AO2 T00760047
KMQI 190735Z AUTO 08011KT 10SM SCT050 07/05 A3048 RMK AO2 T00710045
KMQI 190715Z AUTO 07010KT 10SM CLR 07/04 A3049 RMK AO2 T00700042
KMQI 190655Z AUTO 08009KT 10SM CLR 07/04 A3049 RMK AO2 T00700042
KMQI 190635Z AUTO 07009KT 10SM CLR 07/04 A3049 RMK AO2 T00680041
KMQI 190615Z AUTO 07008KT 10SM CLR 07/04 A3050 RMK AO2 T00660041
KMQI 190555Z AUTO 07008KT 10SM CLR 07/04 A3050 RMK AO2 T00660040 10066 20060 401000060
KMQI 190535Z AUTO 07007KT 10SM CLR 07/04 A3050 RMK AO2 T00650037
KMQI 190515Z AUTO 08008KT 10SM CLR 06/03 A3050 RMK AO2 T00620033
KMQI 190455Z AUTO 07008KT 10SM CLR 06/03 A3050 RMK AO2 T00620027
KMQI 190435Z AUTO 08009KT 10SM CLR 06/02 A3050 RMK AO2 T00640023
KMQI 190415Z AUTO 08009KT 10SM CLR 06/03 A3050 RMK AO2 T00620025
KMQI 190355Z AUTO 08008KT 10SM CLR 06/03 A3050 RMK AO2 T00640026
KMQI 190335Z AUTO 08007KT 10SM CLR 07/03 A3050 RMK AO2 T00650027
KMQI 190315Z AUTO 08007KT 10SM CLR 07/03 A3050 RMK AO2 T00650025
KMQI 190255Z AUTO 08007KT 10SM CLR 07/02 A3050 RMK AO2 T00650023
KMQI 190235Z AUTO 08008KT 10SM CLR 06/02 A3050 RMK AO2 T00630021
KMQI 190215Z AUTO 08007KT 10SM CLR 06/02 A3050 RMK AO2 T00620020
KMQI 190155Z AUTO 08007KT 10SM CLR 06/02 A3050 RMK AO2 T00630017
KMQI 190135Z AUTO 08008KT 10SM CLR 06/02 A3049 RMK AO2 T00630018
KMQI 190115Z AUTO 09007KT 10SM CLR 06/02 A3048 RMK AO2 T00620021
KMQI 190055Z AUTO 09007KT 10SM CLR 06/02 A3048 RMK AO2 T00600023
KMQI 190035Z AUTO 09005KT 10SM CLR 06/02 A3048 RMK AO2 T00610023
KMQI 190015Z AUTO 09006KT 10SM CLR 06/02 A3048 RMK AO2 T00610022
KMQI 182355Z AUTO 08006KT 10SM CLR 06/02 A3047 RMK AO2 T00600022 10097 20060
KMQI 182335Z AUTO 08007KT 10SM CLR 06/02 A3047 RMK AO2 T00600021
KMQI 182315Z AUTO 08007KT 10SM CLR 06/02 A3046 RMK AO2 T00610017
KMQI 182255Z AUTO 07006KT 10SM CLR 06/02 A3046 RMK AO2 T00640016
KMQI 182235Z AUTO 07009KT 10SM CLR 07/02 A3045 RMK AO2 T00680016
KMQI 182215Z AUTO 06007KT 10SM CLR 07/02 A3045 RMK AO2 T00710017
KMQI 182155Z AUTO 06009KT 10SM CLR 08/02 A3044 RMK AO2 T00750017
KMQI 182135Z AUTO 06010G16KT 10SM CLR 08/01 A3043 RMK AO2 T00780013
KMQI 182115Z AUTO 07011KT 10SM CLR 08/02 A3042 RMK AO2 T00810015
KMQI 182055Z AUTO 06011KT 10SM CLR 08/01 A3042 RMK AO2 T00820014
KMQI 182035Z AUTO 06014G18KT 10SM CLR 08/01 A3042 RMK AO2 T00840011
KMQI 182015Z AUTO 06014G19KT 10SM CLR 09/01 A3041 RMK AO2 T00860009
KMQI 181955Z AUTO 06014G21KT 10SM CLR 09/01 A3041 RMK AO2 T00870012
KMQI 181935Z AUTO 05015G20KT 10SM CLR 09/01 A3041 RMK AO2 T00910011
KMQI 181915Z AUTO 05015G22KT 10SM CLR 09/01 A3041 RMK AO2 T00900010
KMQI 181855Z AUTO 06014G18KT 10SM CLR 09/02 A3041 RMK AO2 T00930016
KMQI 181835Z AUTO 06015G20KT 10SM CLR 10/02 A3041 RMK AO2 T00970016
KMQI 181815Z AUTO 05013G19KT 10SM CLR 10/01 A3041 RMK AO2 T00960012
KMQI 181755Z AUTO 05016G21KT 10SM CLR 10/01 A3042 RMK AO2 T00950014 10100 20073
KMQI 181735Z AUTO 04015G25KT 10SM CLR 09/02 A3041 RMK AO2 T00930021
KMQI 181715Z AUTO 05012G24KT 10SM CLR 09/03 A3041 RMK AO2 T00930028
KMQI 181655Z AUTO 05013G18KT 10SM CLR 10/03 A3040 RMK AO2 T00950033
KMQI 181635Z AUTO 05016G23KT 10SM CLR 09/03 A3040 RMK AO2 T00910034
KMQI 181615Z AUTO 04015G24KT 10SM CLR 09/04 A3040 RMK AO2 T00880039
KMQI 181555Z AUTO 04013G21KT 10SM CLR 09/04 A3039 RMK AO2 T00900039
KMQI 181535Z AUTO 04011G22KT 10SM CLR 09/04 A3038 RMK AO2 T00880043
KMQI 181515Z AUTO 04017G25KT 10SM CLR 09/04 A3038 RMK AO2 T00860041
KMQI 181455Z AUTO 03012KT 10SM CLR 09/05 A3036 RMK AO2 T00860052
KMQI 181435Z AUTO 03011G17KT 10SM CLR 08/05 A3034 RMK AO2 T00820054
KMQI 181415Z AUTO 02009G15KT 10SM BKN009 08/06 A3033 RMK AO2 T00770059
KMQI 181355Z AUTO 03011KT 10SM BKN009 07/06 A3032 RMK AO2 T00740057